createdAt,value
2023-03-24T00:01:12.084Z,41.38
2023-03-24T00:03:20.472Z,43.97
2023-03-24T00:05:29.595Z,43.63
2023-03-24T00:07:39.980Z,42.03
2023-03-24T00:09:48.922Z,43.67
2023-03-24T00:11:56.160Z,42.45
2023-03-24T00:14:03.797Z,41.28
2023-03-24T00:16:13.357Z,42.15
2023-03-24T00:18:23.534Z,44.33
2023-03-24T00:20:30.576Z,44.53
2023-03-24T00:22:43.282Z,45.55
2023-03-24T00:24:50.615Z,42.63
2023-03-24T00:26:59.379Z,41.63
2023-03-24T00:29:07.487Z,40.70
2023-03-24T00:31:17.126Z,39.08
2023-03-24T00:33:25.137Z,39.67
2023-03-24T00:35:32.945Z,38.50
2023-03-24T00:37:42.886Z,38.13
2023-03-24T00:39:50.816Z,38.33
2023-03-24T00:41:59.692Z,38.13
2023-03-24T00:44:10.866Z,36.17
2023-03-24T00:46:28.670Z,35.50
2023-03-24T00:48:39.102Z,32.85
2023-03-24T00:50:49.771Z,31.02
2023-03-24T00:53:02.990Z,30.05
2023-03-24T00:55:10.692Z,28.42
2023-03-24T00:57:22.634Z,28.02
2023-03-24T00:59:30.737Z,27.33
2023-03-24T01:01:39.931Z,28.08
2023-03-24T01:03:51.757Z,27.63
2023-03-24T01:06:04.365Z,27.92
2023-03-24T01:08:14.002Z,26.67
2023-03-24T01:10:22.663Z,25.60
2023-03-24T01:12:31.122Z,25.92
2023-03-24T01:14:38.302Z,25.40
2023-03-24T01:16:45.827Z,24.80
2023-03-24T01:18:53.637Z,25.45
2023-03-24T01:21:02.356Z,25.17
2023-03-24T01:23:09.644Z,23.08
2023-03-24T01:25:22.379Z,23.40
2023-03-24T01:27:29.788Z,22.90
2023-03-24T01:29:38.249Z,22.92
2023-03-24T01:31:45.934Z,23.58
2023-03-24T01:33:53.124Z,22.35
2023-03-24T01:36:00.499Z,24.15
2023-03-24T01:38:10.150Z,23.73
2023-03-24T01:40:22.096Z,23.65
2023-03-24T01:42:30.967Z,22.95
2023-03-24T01:44:39.990Z,22.25
2023-03-24T01:46:47.120Z,21.13
2023-03-24T01:48:57.275Z,21.67
2023-03-24T01:51:11.080Z,21.27
2023-03-24T01:53:18.445Z,21.35
2023-03-24T01:55:27.677Z,22.08
2023-03-24T01:57:38.240Z,20.77
2023-03-24T01:59:49.157Z,21.80
2023-03-24T02:02:14.927Z,22.40
2023-03-24T02:04:37.006Z,32.33
2023-03-24T02:06:49.970Z,30.60
2023-03-24T02:08:59.303Z,24.85
2023-03-24T02:11:10.137Z,21.67
2023-03-24T02:13:27.647Z,20.15
2023-03-24T02:15:37.596Z,21.13
2023-03-24T02:17:59.118Z,21.30
2023-03-24T02:23:02.277Z,20.50
2023-03-24T02:25:37.883Z,21.83
2023-03-24T02:28:23.609Z,21.10
2023-03-24T02:31:08.737Z,20.92
2023-03-24T02:33:47.655Z,20.60
2023-03-24T02:36:33.241Z,21.48
2023-03-24T02:39:19.990Z,21.13
2023-03-24T02:41:32.855Z,21.00
2023-03-24T02:46:24.679Z,19.95
2023-03-24T02:48:40.376Z,20.30
2023-03-24T02:50:54.319Z,20.77
2023-03-24T02:53:10.972Z,21.90
2023-03-24T02:55:38.395Z,19.98
2023-03-24T02:57:50.323Z,20.33
2023-03-24T03:00:40.094Z,18.98
2023-03-24T03:02:52.688Z,18.23
2023-03-24T03:05:04.854Z,19.92
2023-03-24T03:07:13.930Z,18.48
2023-03-24T03:09:23.154Z,20.52
2023-03-24T03:11:32.799Z,18.42
2023-03-24T03:13:42.948Z,19.25
2023-03-24T03:15:54.213Z,19.63
2023-03-24T03:20:16.398Z,20.38
2023-03-24T03:22:27.809Z,19.30
2023-03-24T03:24:38.417Z,18.17
2023-03-24T03:26:49.957Z,18.83
2023-03-24T03:29:01.234Z,19.35
2023-03-24T03:31:11.811Z,18.85
2023-03-24T03:33:26.014Z,20.05
2023-03-24T03:35:38.634Z,19.35
2023-03-24T03:37:52.742Z,18.98
2023-03-24T03:40:02.951Z,18.48
2023-03-24T03:42:12.891Z,19.25
2023-03-24T03:44:20.636Z,19.95
2023-03-24T03:46:28.112Z,18.58
2023-03-24T03:48:37.560Z,18.92
2023-03-24T03:50:44.640Z,19.48
2023-03-24T03:52:53.257Z,18.95
2023-03-24T03:55:01.613Z,19.48
2023-03-24T03:57:09.349Z,18.75
2023-03-24T03:59:36.106Z,18.60
2023-03-24T04:01:49.927Z,18.80
2023-03-24T04:04:39.263Z,19.42
2023-03-24T04:07:18.232Z,18.13
2023-03-24T04:12:07.136Z,16.60
2023-03-24T04:15:05.642Z,17.88
2023-03-24T04:17:54.939Z,17.33
2023-03-24T04:20:25.388Z,17.13
2023-03-24T04:22:41.680Z,18.13
2023-03-24T04:24:59.415Z,17.23
2023-03-24T04:27:13.048Z,17.60
2023-03-24T04:29:26.937Z,17.35
2023-03-24T04:31:38.375Z,16.60
2023-03-24T04:36:20.169Z,16.95
2023-03-24T04:39:08.317Z,16.75
2023-03-24T04:41:27.994Z,16.98
2023-03-24T04:43:48.735Z,16.00
2023-03-24T04:45:58.763Z,16.30
2023-03-24T04:48:29.784Z,17.23
2023-03-24T04:51:11.061Z,17.15
2023-03-24T04:53:35.907Z,15.88
2023-03-24T04:56:00.035Z,16.50
2023-03-24T04:58:36.412Z,16.20
2023-03-24T05:00:45.346Z,16.98
2023-03-24T05:02:54.324Z,17.30
2023-03-24T05:05:10.433Z,16.48
2023-03-24T05:07:25.497Z,17.10
2023-03-24T05:09:37.135Z,15.30
2023-03-24T05:11:45.132Z,15.48
2023-03-24T05:13:52.109Z,15.93
2023-03-24T05:15:59.490Z,16.48
2023-03-24T05:18:18.247Z,16.33
2023-03-24T05:20:27.427Z,15.65
2023-03-24T05:22:42.014Z,16.55
2023-03-24T05:24:49.379Z,16.42
2023-03-24T05:26:56.604Z,16.15
2023-03-24T05:29:04.963Z,16.25
2023-03-24T05:31:12.532Z,16.35
2023-03-24T05:33:27.008Z,17.67
2023-03-24T05:35:36.165Z,16.20
2023-03-24T05:37:43.570Z,17.08
2023-03-24T05:39:50.849Z,17.05
2023-03-24T05:42:13.495Z,16.35
2023-03-24T05:44:20.575Z,16.40
2023-03-24T05:46:41.212Z,16.75
2023-03-24T05:48:48.873Z,16.60
2023-03-24T05:51:00.148Z,16.70
2023-03-24T05:53:07.323Z,16.95
2023-03-24T05:55:43.634Z,16.95
2023-03-24T05:58:10.647Z,16.80
2023-03-24T06:00:25.650Z,15.43
2023-03-24T06:05:13.762Z,16.70
2023-03-24T06:07:23.239Z,17.60
2023-03-24T06:09:33.700Z,16.25
2023-03-24T06:11:40.980Z,16.90
2023-03-24T06:13:50.242Z,16.98
2023-03-24T06:16:01.585Z,17.02
2023-03-24T06:18:27.728Z,17.17
2023-03-24T06:20:37.103Z,17.33
2023-03-24T06:22:50.744Z,16.27
2023-03-24T06:25:06.208Z,16.60
2023-03-24T06:27:15.184Z,17.92
2023-03-24T06:29:22.064Z,17.58
2023-03-24T06:31:31.434Z,35.28
2023-03-24T06:33:39.750Z,34.25
2023-03-24T06:35:47.511Z,21.30
2023-03-24T06:37:59.233Z,20.02
2023-03-24T06:40:11.593Z,16.10
2023-03-24T06:42:22.359Z,16.33
2023-03-24T06:44:31.221Z,16.70
2023-03-24T06:46:38.431Z,16.80
2023-03-24T06:48:47.276Z,17.63
2023-03-24T06:50:56.153Z,16.45
2023-03-24T06:53:05.538Z,17.15
2023-03-24T06:55:15.427Z,18.35
2023-03-24T06:57:22.812Z,17.38
2023-03-24T06:59:56.175Z,17.70
2023-03-24T07:02:07.061Z,17.70
2023-03-24T07:07:14.691Z,17.25
2023-03-24T07:09:29.293Z,17.70
2023-03-24T07:11:36.270Z,17.60
2023-03-24T07:13:43.607Z,18.08
2023-03-24T07:15:50.890Z,18.17
2023-03-24T07:17:58.398Z,17.48
2023-03-24T07:20:14.223Z,17.73
2023-03-24T07:22:21.546Z,16.60
2023-03-24T07:24:48.645Z,16.95
2023-03-24T07:27:16.462Z,17.35
2023-03-24T07:29:23.488Z,17.70
2023-03-24T07:31:46.769Z,17.27
2023-03-24T07:33:54.100Z,17.48
2023-03-24T07:36:01.608Z,18.27
2023-03-24T07:38:09.059Z,18.10
2023-03-24T07:40:18.981Z,16.88
2023-03-24T07:42:26.598Z,16.30
2023-03-24T07:44:53.807Z,16.73
2023-03-24T07:47:00.851Z,16.33
2023-03-24T07:49:18.770Z,17.10
2023-03-24T07:51:37.867Z,15.75
2023-03-24T07:54:01.235Z,16.08
2023-03-24T07:56:25.103Z,15.85
2023-03-24T07:58:35.565Z,16.58
2023-03-24T08:00:54.223Z,16.17
2023-03-24T08:03:15.200Z,14.43
2023-03-24T08:05:28.863Z,15.15
2023-03-24T08:07:54.428Z,14.90
2023-03-24T08:10:01.395Z,15.07
2023-03-24T08:12:19.945Z,15.15
2023-03-24T08:14:27.483Z,15.65
2023-03-24T08:16:34.986Z,15.32
2023-03-24T08:18:41.951Z,14.65
2023-03-24T08:20:49.282Z,13.43
2023-03-24T08:22:56.912Z,14.15
2023-03-24T08:25:04.372Z,14.63
2023-03-24T08:27:13.079Z,14.43
2023-03-24T08:29:20.435Z,14.48
2023-03-24T08:31:27.337Z,14.23
2023-03-24T08:33:34.883Z,14.45
2023-03-24T08:35:42.264Z,14.32
2023-03-24T08:37:49.663Z,14.55
2023-03-24T08:39:59.603Z,14.95
2023-03-24T08:42:06.936Z,14.73
2023-03-24T08:44:15.959Z,16.35
2023-03-24T08:46:23.223Z,15.20
2023-03-24T08:48:31.407Z,14.88
2023-03-24T08:50:42.681Z,15.50
2023-03-24T08:52:50.683Z,14.82
2023-03-24T08:55:50.639Z,15.35
2023-03-24T08:58:24.705Z,16.88
2023-03-24T09:00:33.888Z,15.77
2023-03-24T09:02:41.543Z,16.50
2023-03-24T09:04:48.759Z,16.70
2023-03-24T09:07:02.934Z,16.30
2023-03-24T09:09:10.443Z,15.43
2023-03-24T09:11:20.796Z,15.35
2023-03-24T09:13:28.131Z,15.52
2023-03-24T09:15:37.104Z,15.43
2023-03-24T09:17:44.561Z,16.38
2023-03-24T09:19:51.518Z,16.42
2023-03-24T09:21:58.759Z,16.08
2023-03-24T09:24:05.731Z,15.77
2023-03-24T09:26:13.027Z,17.65
2023-03-24T09:28:20.039Z,15.52
2023-03-24T09:30:28.719Z,16.45
2023-03-24T09:32:39.701Z,16.63
2023-03-24T09:34:46.911Z,15.98
2023-03-24T09:36:54.243Z,16.20
2023-03-24T09:39:04.346Z,17.63
2023-03-24T09:41:20.644Z,15.98
2023-03-24T09:43:33.818Z,16.50
2023-03-24T09:45:47.913Z,17.08
2023-03-24T09:48:01.110Z,17.25
2023-03-24T09:50:12.771Z,17.05
2023-03-24T09:52:24.593Z,16.95
2023-03-24T09:56:42.826Z,16.98
2023-03-24T09:58:56.497Z,15.93
2023-03-24T10:01:03.898Z,17.02
2023-03-24T10:03:22.652Z,16.92
2023-03-24T10:05:37.816Z,17.92
2023-03-24T10:07:51.589Z,17.60
2023-03-24T10:10:01.439Z,17.50
2023-03-24T10:12:20.042Z,18.15
2023-03-24T10:14:40.017Z,17.17
2023-03-24T10:16:53.344Z,16.98
2023-03-24T10:19:11.371Z,16.50
2023-03-24T10:21:23.527Z,17.10
2023-03-24T10:23:37.722Z,16.63
2023-03-24T10:25:53.301Z,17.42
2023-03-24T10:28:03.554Z,16.58
2023-03-24T10:30:19.033Z,17.55
2023-03-24T10:32:29.807Z,17.15
2023-03-24T10:34:40.313Z,17.30
2023-03-24T10:36:48.574Z,17.08
2023-03-24T10:38:55.595Z,17.27
2023-03-24T10:41:04.670Z,17.45
2023-03-24T10:43:12.011Z,17.40
2023-03-24T10:45:25.896Z,19.25
2023-03-24T10:47:34.771Z,18.05
2023-03-24T10:49:57.256Z,17.23
2023-03-24T10:52:06.997Z,17.45
2023-03-24T10:54:16.382Z,17.83
2023-03-24T10:56:41.756Z,18.80
2023-03-24T10:58:51.019Z,18.45
2023-03-24T11:00:58.595Z,19.70
2023-03-24T11:03:09.324Z,18.67
2023-03-24T11:05:23.878Z,18.40
2023-03-24T11:07:36.958Z,17.85
2023-03-24T11:09:45.787Z,18.50
2023-03-24T11:11:54.636Z,18.08
2023-03-24T11:14:03.354Z,18.48
2023-03-24T11:16:16.640Z,19.90
2023-03-24T11:18:24.937Z,19.98
2023-03-24T11:20:36.779Z,19.23
2023-03-24T11:22:43.982Z,19.83
2023-03-24T11:24:54.733Z,19.88
2023-03-24T11:27:03.285Z,19.55
2023-03-24T11:29:15.289Z,20.20
2023-03-24T11:31:27.079Z,19.25
2023-03-24T11:33:37.223Z,21.77
2023-03-24T11:35:50.343Z,21.05
2023-03-24T11:38:09.560Z,20.50
2023-03-24T11:40:22.589Z,21.85
2023-03-24T11:42:31.447Z,21.95
2023-03-24T11:44:49.591Z,21.67
2023-03-24T11:47:00.762Z,21.63
2023-03-24T11:49:08.720Z,21.30
2023-03-24T11:51:26.767Z,22.38
2023-03-24T11:53:45.404Z,22.05
2023-03-24T11:55:57.599Z,22.80
2023-03-24T11:58:07.391Z,23.92
2023-03-24T12:00:23.070Z,23.50
2023-03-24T12:02:45.526Z,23.65
2023-03-24T12:05:14.353Z,25.92
2023-03-24T12:07:45.654Z,25.83
2023-03-24T12:09:58.829Z,23.45
2023-03-24T12:12:28.929Z,23.67
2023-03-24T12:14:50.101Z,23.20
2023-03-24T12:17:05.426Z,23.80
2023-03-24T12:19:51.728Z,23.23
2023-03-24T12:22:09.707Z,23.70
2023-03-24T12:24:27.896Z,24.42
2023-03-24T12:26:36.099Z,25.13
2023-03-24T12:28:55.419Z,24.38
2023-03-24T12:31:14.708Z,24.83
2023-03-24T12:33:39.543Z,25.08
2023-03-24T12:36:00.751Z,24.83
2023-03-24T12:38:23.481Z,24.37
2023-03-24T12:41:06.720Z,24.92
2023-03-24T12:43:24.182Z,27.15
2023-03-24T12:45:40.762Z,24.67
2023-03-24T12:48:10.229Z,24.60
2023-03-24T12:50:30.067Z,24.38
2023-03-24T12:53:06.646Z,23.90
2023-03-24T12:55:19.042Z,24.73
2023-03-24T12:59:41.139Z,23.73
2023-03-24T13:01:51.159Z,23.35
2023-03-24T13:04:06.610Z,23.45
2023-03-24T13:06:24.400Z,23.98
2023-03-24T13:08:33.317Z,23.45
2023-03-24T13:10:41.414Z,23.27
2023-03-24T13:12:57.201Z,23.67
2023-03-24T13:15:10.008Z,23.60
2023-03-24T13:17:22.894Z,24.88
2023-03-24T13:19:30.473Z,24.52
2023-03-24T13:21:38.777Z,24.80
2023-03-24T13:23:52.616Z,25.98
2023-03-24T13:26:08.921Z,24.92
2023-03-24T13:28:25.416Z,24.73
2023-03-24T13:30:37.157Z,24.40
2023-03-24T13:32:48.170Z,25.35
2023-03-24T13:35:03.958Z,25.73
2023-03-24T13:37:15.696Z,26.50
2023-03-24T13:39:26.461Z,27.08
2023-03-24T13:41:41.771Z,25.67
2023-03-24T13:43:54.749Z,27.77
2023-03-24T13:46:04.628Z,26.83
2023-03-24T13:48:27.237Z,27.98
2023-03-24T13:50:36.313Z,27.23
2023-03-24T13:52:47.860Z,26.75
2023-03-24T13:55:02.759Z,27.10
2023-03-24T13:57:16.096Z,26.25
2023-03-24T13:59:32.192Z,26.38
2023-03-24T14:01:43.128Z,26.20
2023-03-24T14:04:10.756Z,26.55
2023-03-24T14:06:20.592Z,25.73
2023-03-24T14:08:44.885Z,24.92
2023-03-24T14:10:53.139Z,25.15
2023-03-24T14:13:06.260Z,25.80
2023-03-24T14:15:24.029Z,24.00
2023-03-24T14:17:31.274Z,24.75
2023-03-24T14:19:41.803Z,25.27
2023-03-24T14:21:55.220Z,23.83
2023-03-24T14:24:05.116Z,23.70
2023-03-24T14:26:17.254Z,23.83
2023-03-24T14:28:31.601Z,23.60
2023-03-24T14:30:41.853Z,23.92
2023-03-24T14:32:51.036Z,23.65
2023-03-24T14:35:01.192Z,21.95
2023-03-24T14:37:11.283Z,22.95
2023-03-24T14:39:29.905Z,21.77
2023-03-24T14:41:42.849Z,21.67
2023-03-24T14:44:01.945Z,22.50
2023-03-24T14:46:43.810Z,22.00
2023-03-24T14:51:15.779Z,22.58
2023-03-24T14:53:25.368Z,22.48
2023-03-24T14:55:33.425Z,22.13
2023-03-24T14:57:44.753Z,22.42
2023-03-24T14:59:59.154Z,23.05
2023-03-24T15:02:23.429Z,22.08
2023-03-24T15:04:30.368Z,22.30
2023-03-24T15:06:47.960Z,21.55
2023-03-24T15:08:55.930Z,22.30
2023-03-24T15:11:05.993Z,23.60
2023-03-24T15:13:32.166Z,22.45
2023-03-24T15:15:39.595Z,23.95
2023-03-24T15:17:49.635Z,22.55
2023-03-24T15:19:57.955Z,21.80
2023-03-24T15:22:06.286Z,22.33
2023-03-24T15:24:31.059Z,22.17
2023-03-24T15:26:38.040Z,22.25
2023-03-24T15:28:45.370Z,22.20
2023-03-24T15:30:52.570Z,22.58
2023-03-24T15:33:02.700Z,22.63
2023-03-24T15:35:15.363Z,23.63
2023-03-24T15:37:27.107Z,22.40
2023-03-24T15:39:37.826Z,23.23
2023-03-24T15:41:45.099Z,22.73
2023-03-24T15:43:54.945Z,22.33
2023-03-24T15:46:12.345Z,21.88
2023-03-24T15:48:24.005Z,22.38
2023-03-24T15:52:42.108Z,22.27
2023-03-24T15:54:49.341Z,22.58
2023-03-24T15:57:18.793Z,22.23
2023-03-24T15:59:26.074Z,22.75
2023-03-24T16:01:36.929Z,22.73
2023-03-24T16:03:49.417Z,21.83
2023-03-24T16:05:58.008Z,21.88
2023-03-24T16:08:06.883Z,22.05
2023-03-24T16:10:34.285Z,23.63
2023-03-24T16:12:41.671Z,23.23
2023-03-24T16:14:48.648Z,24.15
2023-03-24T16:16:59.255Z,23.70
2023-03-24T16:19:08.440Z,23.02
2023-03-24T16:21:18.491Z,23.27
2023-03-24T16:23:26.745Z,23.90
2023-03-24T16:25:33.979Z,23.05
2023-03-24T16:27:40.904Z,23.08
2023-03-24T16:29:48.342Z,24.30
2023-03-24T16:31:56.392Z,23.55
2023-03-24T16:34:03.482Z,24.73
2023-03-24T16:36:14.955Z,23.55
2023-03-24T16:40:36.342Z,22.58
2023-03-24T16:42:43.412Z,23.95
2023-03-24T16:44:50.317Z,24.42
2023-03-24T16:46:58.377Z,23.60
2023-03-24T16:49:06.875Z,24.85
2023-03-24T16:51:19.272Z,24.73
2023-03-24T16:53:26.393Z,24.20
2023-03-24T16:55:34.031Z,26.85
2023-03-24T16:57:41.013Z,24.58
2023-03-24T16:59:48.292Z,22.90
2023-03-24T17:01:57.148Z,23.10
2023-03-24T17:04:05.628Z,22.52
2023-03-24T17:06:14.085Z,22.55
2023-03-24T17:08:23.311Z,24.73
2023-03-24T17:10:30.755Z,23.45
2023-03-24T17:12:37.886Z,23.42
2023-03-24T17:14:45.435Z,24.58
2023-03-24T17:16:53.991Z,24.60
2023-03-24T17:19:00.915Z,24.65
2023-03-24T17:21:08.863Z,24.92
2023-03-24T17:23:19.540Z,24.83
2023-03-24T17:25:30.189Z,24.87
2023-03-24T17:27:37.219Z,24.30
2023-03-24T17:29:44.502Z,24.00
2023-03-24T17:31:51.671Z,25.05
2023-03-24T17:34:03.751Z,24.65
2023-03-24T17:36:18.999Z,25.15
2023-03-24T17:38:27.058Z,25.23
2023-03-24T17:40:35.822Z,26.25
2023-03-24T17:42:46.331Z,25.48
2023-03-24T17:44:53.869Z,26.10
2023-03-24T17:47:01.293Z,26.92
2023-03-24T17:49:08.291Z,26.88
2023-03-24T17:51:15.465Z,29.30
2023-03-24T17:53:29.455Z,27.58
2023-03-24T17:55:38.583Z,25.92
2023-03-24T17:57:46.021Z,26.42
2023-03-24T17:59:53.312Z,26.00
2023-03-24T18:02:00.227Z,26.17
2023-03-24T18:04:07.657Z,28.13
2023-03-24T18:06:17.416Z,26.30
2023-03-24T18:08:24.995Z,27.00
2023-03-24T18:10:35.200Z,25.90
2023-03-24T18:12:44.632Z,27.75
2023-03-24T18:14:51.507Z,26.75
2023-03-24T18:16:58.730Z,25.25
2023-03-24T18:19:05.971Z,27.60
2023-03-24T18:21:13.203Z,29.80
2023-03-24T18:23:20.435Z,28.63
2023-03-24T18:25:27.719Z,26.85
2023-03-24T18:27:34.827Z,27.63
2023-03-24T18:29:44.130Z,28.38
2023-03-24T18:31:51.348Z,26.95
2023-03-24T18:33:58.858Z,28.50
2023-03-24T18:36:06.908Z,27.73
2023-03-24T18:38:16.237Z,26.17
2023-03-24T18:40:23.317Z,27.70
2023-03-24T18:42:30.861Z,27.70
2023-03-24T18:44:38.193Z,26.58
2023-03-24T18:46:47.372Z,27.70
2023-03-24T18:48:54.805Z,27.95
2023-03-24T18:51:02.195Z,29.05
2023-03-24T18:53:09.277Z,29.20
2023-03-24T18:55:19.244Z,28.67
2023-03-24T18:57:26.296Z,26.60
2023-03-24T18:59:33.583Z,28.80
2023-03-24T19:01:40.693Z,30.10
2023-03-24T19:03:50.672Z,26.73
2023-03-24T19:06:03.074Z,27.15
2023-03-24T19:08:10.811Z,27.42
2023-03-24T19:10:17.806Z,28.75
2023-03-24T19:12:24.869Z,28.85
2023-03-24T19:14:32.613Z,27.70
2023-03-24T19:16:39.825Z,28.77
2023-03-24T19:18:46.824Z,28.05
2023-03-24T19:20:58.732Z,29.90
2023-03-24T19:23:06.721Z,30.15
2023-03-24T19:25:16.524Z,32.78
2023-03-24T19:27:24.115Z,30.33
2023-03-24T19:29:31.436Z,31.70
2023-03-24T19:31:38.521Z,35.97
2023-03-24T19:33:45.955Z,35.08
2023-03-24T19:35:55.028Z,32.75
2023-03-24T19:38:02.980Z,37.13
2023-03-24T19:40:13.560Z,40.40
2023-03-24T19:42:20.928Z,43.00
2023-03-24T19:44:28.059Z,39.28
2023-03-24T19:46:35.317Z,42.45
2023-03-24T19:48:42.658Z,44.22
2023-03-24T19:50:52.628Z,40.60
2023-03-24T19:53:01.319Z,43.75
2023-03-24T19:55:09.445Z,42.35
2023-03-24T19:57:16.676Z,43.45
2023-03-24T19:59:24.014Z,42.92
2023-03-24T20:01:35.911Z,41.97
2023-03-24T20:03:43.213Z,42.30
2023-03-24T20:05:50.718Z,44.13
2023-03-24T20:08:00.375Z,42.40
2023-03-24T20:10:07.806Z,40.60
2023-03-24T20:12:15.499Z,38.17
2023-03-24T20:14:22.530Z,41.92
2023-03-24T20:16:30.066Z,37.75
2023-03-24T20:18:37.408Z,36.50
2023-03-24T20:20:44.745Z,39.20
2023-03-24T20:22:51.620Z,37.15
2023-03-24T20:25:00.224Z,35.90
2023-03-24T20:27:07.256Z,35.10
2023-03-24T20:29:14.699Z,35.15
2023-03-24T20:31:21.569Z,36.28
2023-03-24T20:33:29.776Z,35.88
2023-03-24T20:35:37.092Z,35.63
2023-03-24T20:37:44.443Z,34.70
2023-03-24T20:39:51.476Z,33.15
2023-03-24T20:42:00.496Z,32.88
2023-03-24T20:44:07.587Z,31.98
2023-03-24T20:46:15.566Z,31.30
2023-03-24T20:48:22.551Z,32.40
2023-03-24T20:50:29.992Z,30.92
2023-03-24T20:52:37.167Z,34.63
2023-03-24T20:54:44.505Z,33.63
2023-03-24T20:56:53.254Z,32.63
2023-03-24T20:59:02.457Z,33.17
2023-03-24T21:01:10.631Z,32.60
2023-03-24T21:03:17.790Z,30.88
2023-03-24T21:05:24.815Z,29.83
2023-03-24T21:07:32.057Z,31.25
2023-03-24T21:09:39.021Z,32.17
2023-03-24T21:11:46.410Z,31.55
2023-03-24T21:13:53.282Z,31.27
2023-03-24T21:16:05.735Z,32.38
2023-03-24T21:18:13.963Z,31.17
2023-03-24T21:20:21.852Z,30.25
2023-03-24T21:22:38.467Z,30.60
2023-03-24T21:24:45.528Z,29.83
2023-03-24T21:26:54.248Z,31.63
2023-03-24T21:29:01.541Z,31.70
2023-03-24T21:31:16.710Z,30.58
2023-03-24T21:33:24.034Z,33.72
2023-03-24T21:35:31.170Z,41.17
2023-03-24T21:37:42.902Z,41.00
2023-03-24T21:39:49.827Z,37.33
2023-03-24T21:41:57.164Z,34.65
2023-03-24T21:44:04.911Z,34.45
2023-03-24T21:46:21.524Z,33.40
2023-03-24T21:48:29.243Z,32.90
2023-03-24T21:50:39.715Z,34.30
2023-03-24T21:52:48.487Z,31.98
2023-03-24T21:54:59.045Z,34.65
2023-03-24T21:57:06.178Z,33.17
2023-03-24T21:59:14.018Z,34.95
2023-03-24T22:01:23.098Z,31.95
2023-03-24T22:03:31.514Z,33.47
2023-03-24T22:05:40.841Z,31.77
2023-03-24T22:07:48.736Z,34.08
2023-03-24T22:09:55.774Z,34.72
2023-03-24T22:12:03.144Z,34.45
2023-03-24T22:14:10.034Z,34.78
2023-03-24T22:16:17.156Z,35.58
2023-03-24T22:18:25.985Z,36.33
2023-03-24T22:20:34.542Z,35.90
2023-03-24T22:22:42.337Z,34.13
2023-03-24T22:24:49.675Z,35.33
2023-03-24T22:26:59.479Z,34.42
2023-03-24T22:29:07.159Z,32.55
2023-03-24T22:31:15.316Z,32.28
2023-03-24T22:33:22.596Z,33.88
2023-03-24T22:35:31.650Z,31.95
2023-03-24T22:37:39.008Z,34.00
2023-03-24T22:39:46.035Z,32.55
2023-03-24T22:41:53.320Z,33.88
2023-03-24T22:44:00.244Z,34.25
2023-03-24T22:46:08.053Z,34.35
2023-03-24T22:48:15.528Z,36.35
2023-03-24T22:50:22.760Z,36.50
2023-03-24T22:52:31.478Z,34.20
2023-03-24T22:54:39.121Z,34.78
2023-03-24T22:56:46.218Z,33.03
2023-03-24T22:58:53.853Z,33.42
2023-03-24T23:01:01.065Z,32.30
2023-03-24T23:03:08.717Z,32.42
2023-03-24T23:05:16.061Z,33.38
2023-03-24T23:07:23.333Z,32.92
2023-03-24T23:09:32.360Z,35.63
2023-03-24T23:11:39.646Z,37.95
2023-03-24T23:13:51.337Z,34.22
2023-03-24T23:15:58.511Z,34.13
2023-03-24T23:18:05.962Z,36.63
2023-03-24T23:20:16.414Z,35.00
2023-03-24T23:22:24.103Z,33.80
2023-03-24T23:24:34.562Z,33.65
2023-03-24T23:26:41.799Z,34.88
2023-03-24T23:28:48.820Z,35.90
2023-03-24T23:30:56.310Z,37.13
2023-03-24T23:33:05.184Z,35.40
2023-03-24T23:35:13.446Z,35.63
2023-03-24T23:37:21.033Z,36.17
2023-03-24T23:39:28.521Z,32.88
2023-03-24T23:41:37.239Z,36.22
2023-03-24T23:43:44.626Z,36.88
2023-03-24T23:45:51.974Z,36.75
2023-03-24T23:47:59.474Z,37.63
2023-03-24T23:50:07.249Z,36.92
2023-03-24T23:52:14.582Z,37.28
2023-03-24T23:54:21.775Z,39.80
2023-03-24T23:56:31.491Z,40.42
2023-03-24T23:58:42.169Z,42.03
